Time;durP1;ratioP1;P1;durP2;ratioP2;P2;SDS_P1;SDS_P2;PMS_P1;PMS_P2;Temp;Humidity;BMP_temperature;BMP_pressure;BME280_temperature;BME280_humidity;BME280_pressure;Samples;Min_cycle;Max_cycle;Signal;HPM_P1;HPM_P2
2022/07/03 00:01:17;;;;;;;0.50;0.40;;;22.60;99.90;;;22.76;50.19;101290.06;4902888;28;97622;-70
2022/07/03 00:07:24;;;;;;;0.57;0.57;;;22.60;99.90;;;22.78;50.38;101288.09;4823368;28;97630;-67
2022/07/03 00:22:24;;;;;;;0.50;0.40;;;22.60;99.90;;;22.75;50.53;101298.25;4891246;28;96659;-67
2022/07/03 00:25:06;;;;;;;0.60;0.60;;;22.60;99.90;;;22.73;50.40;101294.81;4769261;28;97313;-68
2022/07/03 00:27:58;;;;;;;0.50;0.50;;;22.60;99.90;;;22.76;50.46;101290.06;4813430;28;100922;-68
2022/07/03 00:30:25;;;;;;;0.60;0.40;;;22.60;99.90;;;22.76;50.43;101297.25;4811786;28;102393;-67
2022/07/03 00:32:54;;;;;;;0.50;0.50;;;22.60;99.90;;;22.77;50.26;101291.78;4831395;28;98298;-68
2022/07/03 00:35:21;;;;;;;0.60;0.60;;;22.60;99.90;;;22.75;50.21;101293.72;4844776;28;97310;-67
2022/07/03 00:38:01;;;;;;;0.60;0.60;;;22.60;99.80;;;22.75;50.40;101293.72;4813793;28;100100;-67
2022/07/03 00:46:56;;;;;;;1.07;0.50;;;22.40;99.90;;;22.65;50.85;101292.69;1217386;23;98244;-70
2022/07/03 00:49:24;;;;;;;0.80;0.70;;;22.40;99.90;;;22.64;50.79;101299.06;4855769;28;99512;-69
2022/07/03 01:01:05;;;;;;;0.83;0.60;;;22.30;99.90;;;22.55;50.97;101291.69;4906079;22;102730;-69
2022/07/03 01:03:40;;;;;;;0.63;0.60;;;22.30;99.90;;;22.55;51.02;101289.00;4905990;28;99738;-72
2022/07/03 01:06:47;;;;;;;1.37;0.60;;;22.30;99.90;;;22.56;51.11;101288.00;4906489;28;97946;-67
2022/07/03 01:09:16;;;;;;;0.77;0.50;;;22.30;99.90;;;22.55;51.16;101281.78;4790557;28;97082;-67
2022/07/03 01:11:58;;;;;;;1.07;0.73;;;22.30;99.90;;;22.57;50.73;101284.38;4834350;28;100534;-67
2022/07/03 01:15:06;;;;;;;1.03;0.60;;;22.30;99.90;;;22.58;51.30;101280.72;4870870;28;99938;-69
2022/07/03 01:17:39;;;;;;;0.87;0.63;;;22.30;99.90;;;22.57;51.01;101273.63;4876393;28;100000;-70
2022/07/03 01:20:07;;;;;;;0.80;0.50;;;22.30;99.90;;;22.61;50.78;101276.94;4894654;28;99531;-69
2022/07/03 01:22:55;;;;;;;0.70;0.53;;;22.40;99.90;;;22.65;50.87;101278.41;4887863;28;100517;-69
2022/07/03 01:25:49;;;;;;;1.20;0.70;;;22.50;99.90;;;22.66;50.81;101270.22;4926966;28;98354;-70
2022/07/03 01:28:19;;;;;;;0.90;0.70;;;22.50;99.90;;;22.66;50.69;101275.59;4873569;28;98012;-69
2022/07/03 01:30:51;;;;;;;1.00;0.90;;;22.50;99.90;;;22.66;50.54;101269.34;4888753;28;97081;-70
2022/07/03 01:33:19;;;;;;;2.30;0.80;;;22.50;99.80;;;22.64;51.12;101274.00;4893426;28;97195;-69
2022/07/03 01:36:06;;;;;;;0.50;0.50;;;22.40;99.90;;;22.65;50.85;101271.19;4892306;28;96954;-69
2022/07/03 01:38:37;;;;;;;0.60;0.50;;;22.40;99.90;;;22.65;51.03;101271.19;4891697;28;97747;-70
2022/07/03 01:41:06;;;;;;;0.60;0.60;;;22.40;99.90;;;22.65;51.02;101263.13;4913184;28;97683;-69
2022/07/03 01:43:40;;;;;;;0.67;0.67;;;22.50;99.90;;;22.69;51.00;101266.44;4924792;28;98110;-69
2022/07/03 01:46:05;;;;;;;0.50;0.50;;;22.50;99.90;;;22.71;50.93;101265.38;4881630;28;98049;-69
2022/07/03 01:48:34;;;;;;;0.37;0.37;;;22.60;99.90;;;22.75;50.90;101263.28;4893344;28;98959;-71
2022/07/03 01:51:05;;;;;;;0.90;0.80;;;22.60;99.90;;;22.77;50.58;101253.25;4888029;28;100003;-68
2022/07/03 01:53:31;;;;;;;0.67;0.67;;;22.60;99.90;;;22.77;50.66;101254.13;4915084;28;97546;-71
2022/07/03 01:56:01;;;;;;;0.77;0.70;;;22.60;99.90;;;22.78;50.41;101250.44;4914495;28;99823;-67
2022/07/03 01:58:27;;;;;;;0.87;0.70;;;22.60;99.90;;;22.77;50.63;101256.81;4883260;28;97468;-69
2022/07/03 02:01:14;;;;;;;0.53;0.53;;;22.60;99.90;;;22.76;50.32;101255.09;4897843;28;98505;-69
2022/07/03 02:04:05;;;;;;;1.17;1.07;;;22.60;99.70;;;22.65;50.80;101260.44;4899699;28;97915;-68
2022/07/03 02:06:57;;;;;;;1.00;0.80;;;22.40;99.90;;;22.63;51.07;101256.16;4874222;28;98878;-68
2022/07/03 02:09:39;;;;;;;0.90;0.60;;;22.30;99.90;;;22.60;51.21;101241.13;4902568;28;97425;-67
2022/07/03 02:12:12;;;;;;;0.70;0.63;;;22.30;99.90;;;22.60;51.24;101242.97;4899426;28;98182;-68
2022/07/03 02:14:48;;;;;;;1.63;0.80;;;22.30;99.90;;;22.59;51.24;101246.63;4892964;28;99649;-68
2022/07/03 02:17:21;;;;;;;0.50;0.50;;;22.30;99.90;;;22.55;51.18;101254.91;4910298;28;97453;-68
2022/07/03 02:19:57;;;;;;;1.07;0.60;;;22.30;99.90;;;22.53;51.22;101256.00;4892177;28;97441;-67
2022/07/03 02:22:38;;;;;;;1.00;0.80;;;22.20;99.90;;;22.51;51.39;101252.56;4914026;28;96797;-68
2022/07/03 02:25:09;;;;;;;0.60;0.57;;;22.20;99.90;;;22.50;51.56;101256.22;4918379;28;103443;-69
2022/07/03 02:27:47;;;;;;;0.60;0.60;;;22.20;99.90;;;22.52;51.45;101259.66;4908186;28;96667;-68
2022/07/03 02:30:15;;;;;;;0.67;0.60;;;22.30;99.90;;;22.50;51.47;101261.59;4937041;28;96860;-69
2022/07/03 02:32:49;;;;;;;0.87;0.70;;;22.30;99.90;;;22.50;51.52;101257.09;4912240;28;96978;-69
2022/07/03 02:35:31;;;;;;;1.00;0.70;;;22.20;99.90;;;22.52;51.41;101270.41;4924144;28;99236;-69
2022/07/03 02:38:22;;;;;;;0.60;0.53;;;22.30;99.90;;;22.48;51.43;101258.19;4896826;28;101881;-67
2022/07/03 02:41:03;;;;;;;1.20;0.80;;;22.20;99.90;;;22.48;51.53;101269.78;4918920;28;97017;-68
2022/07/03 02:43:49;;;;;;;0.77;0.70;;;22.20;99.90;;;22.50;51.42;101267.00;4900451;28;96702;-69
2022/07/03 02:46:59;;;;;;;1.60;0.90;;;22.20;99.90;;;22.50;51.53;101256.22;4938495;28;101604;-69
2022/07/03 02:50:11;;;;;;;1.10;0.87;;;22.20;99.90;;;22.52;51.25;101265.03;4908654;28;99700;-69
2022/07/03 02:52:42;;;;;;;1.47;0.97;;;22.30;99.90;;;22.49;51.33;101265.28;4908483;28;96683;-69
2022/07/03 02:55:47;;;;;;;1.87;0.80;;;22.30;99.90;;;22.49;51.57;101265.28;4920055;28;97883;-69
2022/07/03 02:58:49;;;;;;;0.80;0.80;;;22.20;99.90;;;22.48;51.46;101266.25;4859456;28;101645;-69
2022/07/03 03:01:47;;;;;;;1.30;1.20;;;22.20;99.90;;;22.46;51.52;101268.19;4885937;28;100573;-69
2022/07/03 03:04:31;;;;;;;0.93;0.70;;;22.20;99.90;;;22.43;51.68;101263.06;4923984;28;97146;-68
2022/07/03 03:07:11;;;;;;;0.90;0.67;;;22.10;99.90;;;22.42;51.83;101258.63;4922415;28;97541;-69
2022/07/03 03:09:45;;;;;;;0.70;0.70;;;22.10;99.90;;;22.44;51.79;101256.72;4922884;28;97426;-69
2022/07/03 03:12:14;;;;;;;1.10;0.80;;;22.20;99.90;;;22.46;51.72;101255.63;4910172;28;96950;-69
2022/07/03 03:14:43;;;;;;;0.93;0.83;;;22.20;99.90;;;22.52;51.63;101265.03;4921557;28;97347;-69
2022/07/03 03:17:17;;;;;;;0.67;0.67;;;22.30;99.90;;;22.57;51.35;101262.88;4943215;28;96724;-68
2022/07/03 03:19:53;;;;;;;0.93;0.77;;;22.40;99.90;;;22.61;51.37;101267.03;4931028;28;97618;-69
2022/07/03 03:23:02;;;;;;;0.83;0.80;;;22.40;99.90;;;22.64;51.18;101274.84;4939454;28;97006;-69
2022/07/03 03:25:28;;;;;;;0.73;0.67;;;22.50;99.90;;;22.60;51.11;101273.38;4908305;28;97400;-69
2022/07/03 03:27:55;;;;;;;1.03;0.80;;;22.40;99.90;;;22.60;51.42;101265.31;4908016;28;97448;-69
2022/07/03 03:30:21;;;;;;;1.20;1.10;;;22.40;99.90;;;22.61;51.29;101275.09;4920694;28;97469;-69
2022/07/03 03:32:47;;;;;;;0.80;0.80;;;22.40;99.90;;;22.62;51.35;101271.44;4917462;28;97693;-68
2022/07/03 03:35:13;;;;;;;0.93;0.70;;;22.50;99.90;;;22.63;51.18;101273.16;4931408;28;96941;-69
2022/07/03 03:37:39;;;;;;;0.80;0.80;;;22.50;99.90;;;22.63;51.40;101278.53;4932999;28;96930;-69
2022/07/03 03:40:06;;;;;;;1.63;0.90;;;22.50;99.90;;;22.65;51.25;101271.19;4927097;28;97454;-68
2022/07/03 03:42:32;;;;;;;1.13;0.90;;;22.50;99.90;;;22.66;51.01;101278.28;4892402;28;99272;-69
2022/07/03 03:44:58;;;;;;;0.73;0.73;;;22.60;99.90;;;22.70;51.06;101279.75;4925496;28;96747;-67
2022/07/03 03:47:25;;;;;;;1.03;1.00;;;22.60;99.90;;;22.73;51.08;101279.53;4904670;28;96812;-67
2022/07/03 03:49:51;;;;;;;0.90;0.70;;;22.60;99.90;;;22.73;50.79;101290.28;4918884;28;97846;-67
2022/07/03 03:52:17;;;;;;;0.70;0.70;;;22.60;99.90;;;22.73;50.85;101279.53;4915514;28;99257;-68
2022/07/03 03:54:43;;;;;;;1.13;1.00;;;22.60;99.90;;;22.71;50.89;101292.25;4925046;28;97502;-67
2022/07/03 03:57:17;;;;;;;0.77;0.60;;;22.60;99.90;;;22.72;51.06;101291.28;4919323;28;97287;-67
2022/07/03 03:59:45;;;;;;;1.10;1.00;;;22.50;99.90;;;22.68;50.74;101292.47;4924997;28;97261;-67
2022/07/03 04:02:12;;;;;;;0.73;0.73;;;22.50;99.90;;;22.68;50.93;101292.47;4931267;28;97139;-68
2022/07/03 04:04:38;;;;;;;0.90;0.80;;;22.50;99.90;;;22.67;51.04;101296.13;4908188;28;96955;-67
2022/07/03 04:07:04;;;;;;;0.60;0.60;;;22.50;99.90;;;22.66;51.15;101298.94;4916802;28;97237;-68
2022/07/03 04:09:30;;;;;;;1.17;1.00;;;22.50;99.90;;;22.67;51.15;101290.75;4925371;28;97557;-67
2022/07/03 04:11:57;;;;;;;1.17;0.90;;;22.50;99.90;;;22.68;51.04;101292.47;4924565;28;99689;-69
2022/07/03 04:14:24;;;;;;;1.17;0.90;;;22.50;99.90;;;22.68;51.07;101296.97;4919771;23;97164;-69
2022/07/03 04:16:49;;;;;;;1.17;1.03;;;22.50;99.90;;;22.68;51.10;101300.53;4896100;28;97026;-69
2022/07/03 04:19:16;;;;;;;1.13;0.90;;;22.50;99.90;;;22.69;51.02;101293.31;4895825;28;100192;-69
2022/07/03 04:21:42;;;;;;;1.43;1.10;;;22.50;99.90;;;22.69;51.07;101298.69;4907425;28;98085;-69
2022/07/03 04:24:08;;;;;;;0.83;0.73;;;22.60;99.90;;;22.69;50.96;101304.06;4884875;28;97258;-69
2022/07/03 04:26:34;;;;;;;1.17;1.10;;;22.50;99.90;;;22.67;nan;101296.13;4878703;28;97455;-69
2022/07/03 04:29:00;;;;;;;0.80;0.70;;;22.50;99.90;;;22.63;51.03;101308.09;4891228;28;98010;-69
2022/07/03 04:31:26;;;;;;;1.37;1.10;;;22.40;99.90;;;22.62;51.29;101310.91;4902606;28;97979;-69
2022/07/03 04:33:52;;;;;;;1.67;1.00;;;22.40;99.90;;;22.60;51.17;101310.16;4896228;28;96883;-69
2022/07/03 04:36:18;;;;;;;1.20;0.87;;;22.40;99.90;;;22.59;51.32;101306.63;4863188;28;97226;-69
2022/07/03 04:38:47;;;;;;;1.20;1.10;;;22.40;99.90;;;22.61;51.24;101312.75;4858585;28;99949;-69
2022/07/03 04:41:17;;;;;;;1.13;1.03;;;22.40;99.90;;;22.64;51.33;101317.88;4861537;28;97063;-69
2022/07/03 04:43:52;;;;;;;1.13;1.03;;;22.50;99.90;;;22.66;51.16;101315.94;4820090;28;97069;-71
2022/07/03 04:46:21;;;;;;;1.30;1.10;;;22.50;99.90;;;22.65;51.14;101316.91;4804916;28;98994;-69
2022/07/03 04:48:56;;;;;;;1.17;1.00;;;22.50;99.90;;;22.67;51.27;101322.16;4808895;28;97512;-68
2022/07/03 04:51:22;;;;;;;0.80;0.80;;;22.50;99.90;;;22.68;51.21;101319.34;4882817;28;98720;-68
2022/07/03 04:53:48;;;;;;;1.20;0.90;;;22.50;99.90;;;22.68;51.01;101313.97;4899225;28;97315;-68
2022/07/03 04:56:14;;;;;;;1.77;1.00;;;22.60;99.90;;;22.72;51.18;101314.63;4873407;28;96945;-68
2022/07/03 04:58:40;;;;;;;0.93;0.90;;;22.60;99.90;;;22.73;51.16;101313.63;4873602;28;99428;-68
2022/07/03 05:01:06;;;;;;;1.03;0.90;;;22.60;99.90;;;22.74;50.95;101313.53;4899326;28;99801;-69
2022/07/03 05:03:32;;;;;;;1.00;1.00;;;22.70;99.90;;;22.75;51.03;101326.00;4899275;28;97224;-71
2022/07/03 05:05:58;;;;;;;2.70;1.97;;;22.60;99.90;;;22.74;50.54;101335.03;4893322;28;98242;-69
2022/07/03 05:08:24;;;;;;;2.60;2.20;;;22.60;99.90;;;22.69;51.03;101337.19;4899851;28;97723;-69
2022/07/03 05:10:50;;;;;;;1.40;1.30;;;22.50;99.90;;;22.67;51.07;101339.16;4896560;28;96869;-68
2022/07/03 05:13:16;;;;;;;1.20;1.00;;;22.40;99.90;;;22.67;51.07;101332.91;4901734;28;97274;-68
2022/07/03 05:15:41;;;;;;;1.13;1.03;;;22.50;99.90;;;22.67;51.00;101333.78;4899422;28;97020;-69
2022/07/03 05:18:07;;;;;;;4.47;2.57;;;22.50;99.90;;;22.63;49.87;101344.88;4903013;28;96847;-68
2022/07/03 05:20:33;;;;;;;1.03;0.90;;;22.40;99.90;;;22.60;51.27;101343.28;4892503;28;97127;-68
2022/07/03 05:23:01;;;;;;;1.20;0.80;;;22.30;99.90;;;22.57;51.38;101327.41;4888035;28;96868;-69
2022/07/03 05:25:30;;;;;;;6.40;2.80;;;22.40;99.90;;;22.59;50.25;101349.66;4897042;28;96612;-69
2022/07/03 05:27:56;;;;;;;1.67;1.27;;;22.40;99.90;;;22.55;51.43;101346.31;4891988;28;101823;-68
2022/07/03 05:30:23;;;;;;;1.23;1.13;;;22.30;99.90;;;22.56;51.49;101347.16;4916076;28;97229;-69
2022/07/03 05:32:50;;;;;;;7.60;3.07;;;22.40;99.90;;;22.56;50.94;101352.53;4889902;28;97284;-68
2022/07/03 05:35:16;;;;;;;4.93;3.17;;;22.30;99.90;;;22.52;51.20;101351.06;4901333;28;97227;-68
2022/07/03 05:37:42;;;;;;;1.20;1.07;;;22.20;99.90;;;22.53;51.53;101350.09;4897974;28;97605;-68
2022/07/03 05:40:08;;;;;;;6.07;2.70;;;22.30;99.90;;;22.51;51.46;101349.34;4903115;28;97112;-69
2022/07/03 05:42:34;;;;;;;2.07;1.30;;;22.30;99.90;;;22.52;51.48;101351.06;4906165;28;96710;-69
2022/07/03 05:45:02;;;;;;;5.17;2.50;;;22.30;99.90;;;22.51;51.38;101363.66;4915499;28;96940;-69
2022/07/03 05:47:27;;;;;;;1.20;1.10;;;22.30;99.90;;;22.51;51.52;101357.41;4908269;28;100691;-69
2022/07/03 05:49:54;;;;;;;1.63;1.13;;;22.30;99.90;;;22.53;51.65;101358.16;4895736;28;98207;-70
2022/07/03 05:52:20;;;;;;;5.37;3.00;;;22.30;99.90;;;22.54;51.16;101349.09;4901441;28;97148;-69
2022/07/03 05:54:46;;;;;;;6.57;3.33;;;22.30;99.90;;;22.45;50.38;101349.81;4895758;28;98652;-69
2022/07/03 05:57:12;;;;;;;5.70;3.40;;;22.20;99.90;;;22.41;50.29;101361.75;4880400;28;100401;-70
2022/07/03 05:59:38;;;;;;;9.17;3.70;;;22.10;99.90;;;22.35;50.68;101356.84;4892351;28;100274;-69
2022/07/03 06:02:05;;;;;;;5.37;2.77;;;22.00;99.90;;;22.33;51.86;101361.47;4873455;28;97366;-69
2022/07/03 06:04:30;;;;;;;4.70;3.07;;;22.00;99.90;;;22.27;51.26;101362.75;4907031;28;100780;-72
2022/07/03 06:06:56;;;;;;;6.97;3.70;;;21.90;99.90;;;22.27;51.85;101365.44;4877304;28;100499;-69
2022/07/03 06:09:23;;;;;;;7.20;3.70;;;21.90;99.90;;;22.21;51.18;101369.47;4892124;28;97244;-69
2022/07/03 06:11:49;;;;;;;6.93;3.63;;;21.90;99.90;;;22.19;51.69;101360.66;4887940;28;97310;-69
2022/07/03 06:14:57;;;;;;;9.20;3.60;;;21.90;99.90;;;22.22;51.89;101360.41;4875009;28;97425;-68
2022/07/03 06:17:30;;;;;;;5.33;3.23;;;21.90;99.90;;;22.21;52.41;101353.34;4882962;28;97278;-68
2022/07/03 06:19:56;;;;;;;5.73;4.00;;;21.90;99.90;;;22.15;51.80;101359.16;4892762;28;102232;-70
2022/07/03 06:22:22;;;;;;;1.37;1.27;;;21.80;99.90;;;22.21;52.61;101358.72;4882683;28;97400;-69
2022/07/03 06:24:48;;;;;;;1.30;1.20;;;21.90;99.90;;;22.29;52.25;101365.38;4908359;28;97428;-69
2022/07/03 06:27:14;;;;;;;3.90;2.60;;;22.10;99.90;;;22.36;52.05;101362.09;4897107;28;99039;-69
2022/07/03 06:29:41;;;;;;;8.73;3.47;;;22.20;99.90;;;22.44;51.74;101369.59;4877637;28;96798;-68
2022/07/03 06:38:52;;;;;;;6.07;3.80;;;22.30;99.90;;;22.49;51.70;101367.44;4802994;28;99328;-68
2022/07/03 06:46:30;;;;;;;7.87;4.07;;;22.10;99.90;;;22.39;51.37;101371.75;5583208;23;97895;-69
2022/07/03 06:54:39;;;;;;;9.40;4.70;;;22.10;99.90;;;22.38;51.19;101375.41;4033352;22;97172;-69
2022/07/03 06:57:05;;;;;;;5.80;4.20;;;22.20;99.90;;;22.43;51.75;101378.66;4916092;28;97409;-70
2022/07/03 06:59:31;;;;;;;8.80;4.40;;;22.20;99.90;;;22.45;50.78;101376.69;4919043;28;97334;-71
2022/07/03 07:01:57;;;;;;;9.33;4.60;;;22.30;99.90;;;22.47;50.91;101385.50;4894743;28;99383;-69
2022/07/03 07:04:22;;;;;;;8.40;4.27;;;22.30;99.90;;;22.42;51.01;101383.16;4901697;28;97258;-69
2022/07/03 07:06:48;;;;;;;6.03;4.00;;;22.20;99.90;;;22.39;51.66;101379.81;4908789;28;97143;-69
2022/07/03 07:09:14;;;;;;;8.07;4.10;;;22.10;99.90;;;22.39;51.32;101371.75;4908804;28;97888;-69
2022/07/03 07:11:40;;;;;;;6.03;3.60;;;22.10;99.90;;;22.43;51.41;101378.66;4913337;28;103424;-69
2022/07/03 07:14:05;;;;;;;6.97;4.27;;;22.20;99.90;;;22.45;51.34;101374.00;4920553;28;98484;-67
2022/07/03 07:16:31;;;;;;;8.03;4.23;;;22.20;99.90;;;22.47;51.55;101375.59;4902238;28;96849;-71
2022/07/03 07:18:57;;;;;;;6.53;3.33;;;22.30;99.90;;;22.49;51.63;101380.88;4888725;28;100168;-67
2022/07/03 07:21:23;;;;;;;9.50;4.67;;;22.30;99.90;;;22.50;51.27;101374.50;4888489;28;97744;-68
2022/07/03 07:23:49;;;;;;;8.70;3.90;;;22.40;99.90;;;22.55;51.54;101375.00;4914630;28;96683;-67
2022/07/03 07:26:15;;;;;;;7.13;4.43;;;22.40;99.90;;;22.59;50.42;101381.91;4922227;28;97285;-67
2022/07/03 07:28:41;;;;;;;2.60;1.97;;;22.50;99.90;;;22.61;51.33;101365.66;4900326;28;97697;-68
2022/07/03 07:31:07;;;;;;;6.80;4.30;;;22.40;99.90;;;22.61;51.01;101361.13;4914607;28;98155;-68
2022/07/03 07:33:32;;;;;;;2.27;1.60;;;22.40;99.90;;;22.63;51.26;101369.09;4910483;28;96816;-69
2022/07/03 07:35:58;;;;;;;8.70;3.90;;;22.40;99.90;;;22.64;49.90;101371.66;4914845;28;96856;-67
2022/07/03 07:38:24;;;;;;;6.53;4.13;;;22.50;99.90;;;22.64;50.80;101366.28;4916850;28;96912;-67
2022/07/03 07:40:50;;;;;;;7.17;3.70;;;22.50;99.90;;;22.66;50.12;101367.00;4895116;28;98601;-67
2022/07/03 07:43:16;;;;;;;7.37;4.20;;;22.50;99.90;;;22.67;50.01;101366.03;4882907;28;97414;-68
2022/07/03 07:45:42;;;;;;;3.27;1.80;;;22.50;99.90;;;22.68;51.25;101365.06;4909418;28;97199;-67
2022/07/03 07:48:08;;;;;;;3.07;1.50;;;22.50;99.90;;;22.70;51.24;101364.94;4894764;28;96975;-67
2022/07/03 07:50:34;;;;;;;2.50;1.87;;;22.60;99.90;;;22.73;50.96;101365.59;4901455;28;97632;-68
2022/07/03 07:53:00;;;;;;;7.23;3.73;;;22.60;99.90;;;22.75;50.34;101369.03;4914469;28;97330;-67
2022/07/03 07:55:26;;;;;;;7.17;4.00;;;22.60;99.90;;;22.78;49.67;101368.78;4916564;28;98756;-67
2022/07/03 07:57:52;;;;;;;5.23;3.40;;;22.70;99.90;;;22.79;50.47;101365.13;4906926;28;99651;-67
2022/07/03 08:00:19;;;;;;;9.10;3.43;;;22.70;99.90;;;22.83;50.65;101372.00;4915500;28;97185;-67
2022/07/03 08:05:38;;;;;;;5.80;2.93;;;22.70;99.90;;;22.80;50.65;101374.91;4915246;28;97484;-69
2022/07/03 08:08:06;;;;;;;5.33;3.07;;;22.70;99.90;;;22.75;50.95;101374.41;4893877;28;103477;-67
2022/07/03 08:10:50;;;;;;;6.80;3.03;;;22.70;99.90;;;22.83;50.97;101381.91;4914019;28;96902;-70
2022/07/03 08:13:18;;;;;;;6.63;3.60;;;22.70;99.90;;;22.79;50.00;101369.63;4916057;28;97872;-69
2022/07/03 08:15:46;;;;;;;4.53;3.23;;;22.70;99.90;;;22.80;50.35;101372.22;4911115;28;97228;-70
2022/07/03 08:18:13;;;;;;;7.03;3.50;;;22.80;99.90;;;22.84;50.00;101362.97;4905830;28;98728;-69
2022/07/03 08:20:39;;;;;;;4.87;2.80;;;22.80;99.90;;;22.80;49.28;101366.81;4899211;28;96652;-69
2022/07/03 08:23:05;;;;;;;4.43;2.37;;;22.80;99.80;;;22.81;49.28;101373.06;4881504;28;97104;-68
2022/07/03 08:25:31;;;;;;;5.00;2.90;;;22.80;99.90;;;22.84;48.92;101367.47;4876453;28;97296;-71
2022/07/03 08:27:58;;;;;;;5.53;3.13;;;22.80;99.70;;;22.90;48.07;101371.56;4910944;28;100561;-67
2022/07/03 08:30:25;;;;;;;4.20;2.97;;;22.80;99.00;;;22.79;49.17;101375.88;4899821;28;99179;-69
2022/07/03 08:32:54;;;;;;;6.13;2.80;;;22.80;99.60;;;22.75;48.78;101377.09;4907849;28;97593;-69
2022/07/03 08:35:20;;;;;;;3.83;3.33;;;22.80;99.40;;;22.82;48.83;101383.75;4892784;28;97336;-69
2022/07/03 08:37:47;;;;;;;5.93;3.17;;;22.80;99.90;;;22.90;48.88;101377.78;4909415;28;97969;-69
2022/07/03 08:40:15;;;;;;;5.93;3.90;;;22.80;99.50;;;22.91;48.92;101386.72;4902519;28;97532;-68
2022/07/03 08:42:52;;;;;;;5.37;3.90;;;22.80;99.50;;;22.96;48.82;101376.47;4879149;28;97916;-69
2022/07/03 08:45:21;;;;;;;6.23;3.90;;;22.90;99.70;;;22.98;48.90;101374.50;4876466;28;97590;-70
2022/07/03 08:47:49;;;;;;;6.03;3.47;;;22.90;99.70;;;22.91;48.79;101384.03;4886076;28;97517;-67
2022/07/03 08:50:18;;;;;;;6.67;2.53;;;22.90;99.50;;;22.89;49.57;101375.22;4876943;28;98521;-67
2022/07/03 08:52:46;;;;;;;6.30;3.60;;;22.90;99.90;;;22.81;48.83;101378.44;4869005;28;97349;-67
2022/07/03 08:55:14;;;;;;;5.80;3.13;;;22.80;99.30;;;22.82;48.61;101375.66;4888039;28;100792;-69
2022/07/03 08:57:42;;;;;;;6.70;3.40;;;22.80;99.10;;;22.93;48.23;101376.69;4872069;28;99474;-69
2022/07/03 09:00:12;;;;;;;7.73;3.10;;;22.90;99.10;;;22.90;48.94;101371.56;4878081;28;98782;-70
2022/07/03 09:02:43;;;;;;;5.30;3.23;;;22.90;99.40;;;23.00;47.51;101370.75;4886944;28;99581;-69
2022/07/03 09:05:16;;;;;;;5.33;3.03;;;22.90;98.70;;;22.95;48.79;101380.97;4892930;28;97947;-68
2022/07/03 09:07:45;;;;;;;5.73;3.40;;;23.00;99.50;;;22.92;49.30;101374.97;4866695;28;97101;-69
2022/07/03 09:14:02;;;;;;;4.90;3.10;;;22.90;99.40;;;22.88;48.89;101376.19;4882766;28;97626;-68
2022/07/03 09:16:28;;;;;;;5.30;3.40;;;22.90;99.40;;;22.95;49.15;101375.59;4886908;28;101305;-67
2022/07/03 09:18:54;;;;;;;5.53;2.73;;;22.90;99.50;;;22.95;47.80;101374.75;4886147;28;99085;-69
2022/07/03 09:21:20;;;;;;;5.83;2.30;;;23.00;98.70;;;22.95;48.29;101380.13;4886646;28;97581;-69
2022/07/03 09:23:47;;;;;;;5.43;3.23;;;23.00;99.10;;;22.91;48.17;101390.25;4888000;28;102764;-69
2022/07/03 09:26:19;;;;;;;5.67;3.30;;;23.00;98.90;;;23.00;48.46;101377.94;4894304;28;96973;-69
2022/07/03 09:28:55;;;;;;;6.70;2.60;;;23.00;98.90;;;23.11;47.52;101383.34;4885914;28;97823;-69
2022/07/03 09:31:24;;;;;;;3.77;2.03;;;23.10;98.40;;;23.09;48.86;101377.22;4891476;28;99439;-69
2022/07/03 09:34:03;;;;;;;4.70;2.40;;;23.10;99.10;;;23.18;48.13;101376.53;4872008;28;97848;-69
2022/07/03 09:36:56;;;;;;;4.73;2.50;;;23.10;98.50;;;23.12;46.93;101382.38;4888847;28;96990;-69
2022/07/03 09:39:30;;;;;;;7.40;3.20;;;23.10;98.60;;;23.14;46.84;101375.88;4886263;28;100389;-69
2022/07/03 09:41:57;;;;;;;4.93;3.03;;;23.10;98.40;;;23.13;47.82;101384.09;4871711;28;103945;-69
2022/07/03 09:44:45;;;;;;;4.30;2.63;;;23.10;98.60;;;23.06;47.92;101377.47;4891692;28;96849;-70
2022/07/03 09:47:23;;;;;;;9.93;3.07;;;23.10;98.50;;;23.04;47.06;101374.06;4872851;28;98139;-69
2022/07/03 09:50:02;;;;;;;4.87;3.03;;;23.10;98.20;;;23.19;46.90;101383.63;4870550;28;97418;-69
2022/07/03 09:52:38;;;;;;;6.23;3.00;;;23.10;97.90;;;23.22;47.43;101367.25;4891903;28;97571;-69
2022/07/03 09:55:10;;;;;;;4.23;2.37;;;23.20;98.00;;;23.20;48.44;101373.72;4888218;28;97600;-67
2022/07/03 09:58:01;;;;;;;6.50;2.57;;;23.20;98.70;;;23.20;46.33;101369.19;4885602;28;98225;-68
2022/07/03 10:01:32;;;;;;;3.40;2.20;;;23.20;98.50;;;23.29;46.92;101368.50;4880756;28;99312;-68
2022/07/03 10:04:22;;;;;;;3.90;2.08;;;23.20;98.00;;;23.22;48.37;101366.38;4841032;28;103762;-69
2022/07/03 10:06:57;;;;;;;3.27;2.40;;;23.20;98.70;;;23.17;48.62;101364.06;4887450;28;100464;-69
2022/07/03 10:09:32;;;;;;;3.87;2.13;;;23.20;99.00;;;23.15;48.87;101366.00;4877810;28;97775;-70
2022/07/03 10:12:02;;;;;;;5.07;2.17;;;23.20;98.80;;;23.24;48.27;101367.13;4873295;28;100325;-67
2022/07/03 10:14:34;;;;;;;5.27;2.40;;;23.20;98.90;;;23.16;47.41;101373.09;4853373;28;99029;-68
2022/07/03 10:17:02;;;;;;;5.47;2.43;;;23.20;98.40;;;23.17;48.36;101368.59;4862247;28;98357;-68
2022/07/03 10:19:30;;;;;;;4.27;2.40;;;23.20;98.90;;;23.18;47.51;101371.16;4894272;28;97325;-67
2022/07/03 10:22:01;;;;;;;2.65;1.58;;;23.20;98.20;;;23.28;48.43;101361.38;4875189;28;101861;-67
2022/07/03 10:24:29;;;;;;;5.50;2.20;;;23.30;99.00;;;23.29;48.00;101365.81;4892245;28;97194;-67
2022/07/03 10:26:57;;;;;;;2.83;1.58;;;23.30;98.30;;;23.37;47.61;101366.03;4870743;28;98165;-68
2022/07/03 10:29:26;;;;;;;4.60;2.05;;;23.40;98.50;;;23.37;48.37;101366.03;4881480;28;98358;-67
2022/07/03 10:31:52;;;;;;;2.00;1.80;;;23.40;98.70;;;23.40;48.59;101365.78;4887659;28;97453;-67
2022/07/03 10:34:24;;;;;;;4.68;2.13;;;23.40;98.90;;;23.30;47.50;101372.03;4892418;28;97014;-67
2022/07/03 10:36:56;;;;;;;9.38;2.78;;;23.40;98.10;;;23.31;48.25;101366.53;4873458;28;97608;-68
2022/07/03 10:46:13;;;;;;;2.90;2.08;;;23.30;99.20;;;23.36;48.97;101371.56;4793443;28;97628;-67
2022/07/03 10:48:57;;;;;;;3.53;1.65;;;23.40;99.10;;;23.33;49.21;101361.88;4883278;28;97039;-67
2022/07/03 10:51:24;;;;;;;4.28;1.55;;;23.30;99.30;;;23.39;48.91;101358.69;4889379;28;98766;-68
2022/07/03 10:54:17;;;;;;;2.25;1.40;;;23.40;99.10;;;23.42;49.04;101363.84;4870173;28;99546;-67
2022/07/03 10:57:01;;;;;;;2.70;1.67;;;23.40;99.10;;;23.38;47.68;101356.13;4866717;28;97327;-69
2022/07/03 10:59:36;;;;;;;4.47;1.70;;;23.40;98.50;;;23.41;48.60;101351.34;4892583;28;100936;-70
2022/07/03 11:02:27;;;;;;;4.03;1.80;;;23.50;98.90;;;23.50;48.50;101343.53;4886830;28;97676;-69
2022/07/03 11:05:00;;;;;;;2.38;1.17;;;23.50;98.90;;;23.45;48.95;101346.63;4868279;28;98577;-69
2022/07/03 11:07:27;;;;;;;3.60;1.83;;;23.50;98.90;;;23.42;48.56;101347.69;4872874;28;99426;-69
2022/07/03 11:10:14;;;;;;;5.93;2.25;;;23.60;98.80;;;23.51;48.14;101339.88;4857160;28;98705;-70
2022/07/03 11:13:06;;;;;;;4.15;1.52;;;23.60;98.60;;;23.61;48.42;101333.69;4885901;28;97469;-68
2022/07/03 11:15:49;;;;;;;4.53;2.25;;;23.70;98.60;;;23.57;48.44;101328.59;4855117;28;99389;-71
2022/07/03 11:18:19;;;;;;;4.28;2.38;;;23.70;98.50;;;23.42;48.63;101334.22;4874904;28;98550;-69
2022/07/03 11:20:45;;;;;;;5.22;1.85;;;23.60;98.60;;;23.58;48.68;101338.41;4879640;28;97031;-68
2022/07/03 11:23:18;;;;;;;2.95;1.48;;;23.70;98.80;;;23.61;48.53;101335.50;4883066;28;99061;-70
2022/07/03 11:25:47;;;;;;;1.85;1.40;;;23.70;98.70;;;23.59;48.77;101332.94;4867663;28;98243;-69
2022/07/03 11:28:31;;;;;;;4.00;1.50;;;23.70;98.80;;;23.60;47.74;101328.41;4887175;28;97407;-69
2022/07/03 11:31:15;;;;;;;5.30;1.45;;;23.80;98.20;;;23.63;47.69;101330.84;4883528;28;96958;-70
2022/07/03 11:33:44;;;;;;;3.13;1.40;;;23.70;98.20;;;23.62;48.13;101331.84;4885295;28;97264;-69
2022/07/03 11:36:16;;;;;;;4.88;1.77;;;23.70;98.30;;;23.63;47.22;101333.56;4895755;28;99021;-69